Time;durP1;ratioP1;P1;durP2;ratioP2;P2;SDS_P1;SDS_P2;PMS_P1;PMS_P2;Temp;Humidity;BMP_temperature;BMP_pressure;BME280_temperature;BME280_humidity;BME280_pressure;Samples;Min_cycle;Max_cycle;Signal;HPM_P1;HPM_P2
2023/09/30 00:01:04;;;;;;;22.70;12.52;;;;;;;;;;6185569;23;20111;-73
2023/09/30 00:03:30;;;;;;;19.42;12.38;;;;;;;;;;6161093;23;20016;-71
2023/09/30 00:06:03;;;;;;;20.55;12.60;;;;;;;;;;6163612;23;20108;-72
2023/09/30 00:08:30;;;;;;;19.45;12.95;;;;;;;;;;6167509;23;20392;-73
2023/09/30 00:10:56;;;;;;;20.65;13.10;;;;;;;;;;6216972;23;20021;-72
2023/09/30 00:13:23;;;;;;;18.23;11.70;;;;;;;;;;6161074;23;20018;-73
2023/09/30 00:15:49;;;;;;;21.13;13.10;;;;;;;;;;6211715;23;20026;-73
2023/09/30 00:18:15;;;;;;;25.67;13.10;;;;;;;;;;6211861;23;20032;-72
2023/09/30 00:20:42;;;;;;;14.10;12.05;;;;;;;;;;6185571;23;20038;-71
2023/09/30 00:23:08;;;;;;;21.80;13.95;;;;;;;;;;6185622;23;20017;-72
2023/09/30 00:25:34;;;;;;;21.67;13.45;;;;;;;;;;6136668;23;20017;-71
2023/09/30 00:28:01;;;;;;;19.27;13.13;;;;;;;;;;6212602;23;20040;-72
2023/09/30 00:30:27;;;;;;;22.33;13.27;;;;;;;;;;6187996;23;20495;-72
2023/09/30 00:32:58;;;;;;;14.00;12.48;;;;;;;;;;6213175;23;20407;-72
2023/09/30 00:35:25;;;;;;;16.52;12.85;;;;;;;;;;6187825;23;20507;-73
2023/09/30 00:37:51;;;;;;;18.48;12.45;;;;;;;;;;6162896;23;20035;-72
2023/09/30 00:40:17;;;;;;;19.58;12.98;;;;;;;;;;6186771;23;20016;-71
2023/09/30 00:42:44;;;;;;;20.67;13.05;;;;;;;;;;6162576;23;20039;-71
2023/09/30 00:45:11;;;;;;;20.85;12.85;;;;;;;;;;6211398;23;20009;-72
2023/09/30 00:47:37;;;;;;;15.55;13.00;;;;;;;;;;6211759;23;20031;-73
2023/09/30 00:50:08;;;;;;;20.98;13.50;;;;;;;;;;6162271;23;20183;-72
2023/09/30 00:52:34;;;;;;;;;;;;;;;;;;6213872;23;20016;-73
2023/09/30 00:55:00;;;;;;;20.23;13.65;;;;;;;;;;6212827;23;19990;-73
2023/09/30 00:57:27;;;;;;;19.83;13.23;;;;;;;;;;6211591;23;20043;-72
2023/09/30 00:59:54;;;;;;;16.40;12.82;;;;;;;;;;6212451;23;20008;-71
2023/09/30 01:02:20;;;;;;;21.80;14.13;;;;;;;;;;6211185;23;20038;-73
2023/09/30 01:04:46;;;;;;;21.15;12.65;;;;;;;;;;6187142;23;20099;-73
2023/09/30 01:07:12;;;;;;;21.10;14.43;;;;;;;;;;6211524;23;20448;-72
2023/09/30 01:09:38;;;;;;;20.63;14.18;;;;;;;;;;6211496;23;20020;-73
2023/09/30 01:12:04;;;;;;;15.77;13.93;;;;;;;;;;6161995;23;20016;-71
2023/09/30 01:14:31;;;;;;;18.02;14.27;;;;;;;;;;6162417;23;20071;-73
2023/09/30 01:16:57;;;;;;;20.98;15.00;;;;;;;;;;6213080;23;20485;-72
2023/09/30 01:19:26;;;;;;;20.45;13.35;;;;;;;;;;6186613;23;20043;-73
2023/09/30 01:21:54;;;;;;;17.67;13.98;;;;;;;;;;6211402;23;20067;-73
2023/09/30 01:24:21;;;;;;;18.35;13.88;;;;;;;;;;6211389;23;20012;-73
2023/09/30 01:26:48;;;;;;;16.05;13.52;;;;;;;;;;6211069;23;20035;-70
2023/09/30 01:29:14;;;;;;;23.98;14.20;;;;;;;;;;6212234;23;20055;-71
2023/09/30 01:31:40;;;;;;;21.70;13.90;;;;;;;;;;6211296;23;20079;-73
2023/09/30 01:34:07;;;;;;;20.45;14.25;;;;;;;;;;6213184;23;20449;-73
2023/09/30 01:36:33;;;;;;;21.85;14.02;;;;;;;;;;6211287;23;20009;-73
2023/09/30 01:39:03;;;;;;;25.80;14.15;;;;;;;;;;6212880;23;20088;-73
2023/09/30 01:41:29;;;;;;;17.33;13.75;;;;;;;;;;6212816;23;20400;-72
2023/09/30 01:43:56;;;;;;;19.98;13.68;;;;;;;;;;6211306;23;20044;-73
2023/09/30 01:46:23;;;;;;;22.65;13.93;;;;;;;;;;6210679;23;20032;-73
2023/09/30 01:48:48;;;;;;;19.08;13.85;;;;;;;;;;6212694;23;20008;-72
2023/09/30 01:51:15;;;;;;;15.27;13.25;;;;;;;;;;6212237;23;20108;-73
2023/09/30 01:53:41;;;;;;;17.13;13.57;;;;;;;;;;6210860;23;20515;-72
2023/09/30 01:56:07;;;;;;;17.08;14.10;;;;;;;;;;6212539;23;20551;-73
2023/09/30 01:58:33;;;;;;;17.05;12.57;;;;;;;;;;6213093;23;20449;-72
2023/09/30 02:01:05;;;;;;;19.92;13.05;;;;;;;;;;6211512;23;20088;-72
2023/09/30 02:03:31;;;;;;;21.42;14.00;;;;;;;;;;6212403;23;20012;-74
2023/09/30 02:05:57;;;;;;;17.67;14.38;;;;;;;;;;6212504;23;20028;-72
2023/09/30 02:08:24;;;;;;;20.08;14.30;;;;;;;;;;6212224;23;20354;-72
2023/09/30 02:10:53;;;;;;;20.15;13.43;;;;;;;;;;6210882;23;20016;-73
2023/09/30 02:13:19;;;;;;;23.05;13.93;;;;;;;;;;6210660;23;20071;-73
2023/09/30 02:15:46;;;;;;;23.15;14.43;;;;;;;;;;6210631;23;20143;-72
2023/09/30 02:18:12;;;;;;;16.58;14.25;;;;;;;;;;6212214;23;20017;-73
2023/09/30 02:20:39;;;;;;;16.73;13.52;;;;;;;;;;6210812;23;20448;-71
2023/09/30 02:23:06;;;;;;;13.82;12.48;;;;;;;;;;6185886;23;20095;-73
2023/09/30 02:25:33;;;;;;;17.90;13.25;;;;;;;;;;6185505;23;20008;-72
2023/09/30 02:28:00;;;;;;;24.38;14.30;;;;;;;;;;6212549;23;20024;-73
2023/09/30 02:30:27;;;;;;;18.92;12.77;;;;;;;;;;6211891;23;20110;-72
2023/09/30 02:32:53;;;;;;;24.65;13.70;;;;;;;;;;6210876;23;20055;-74
2023/09/30 02:35:20;;;;;;;17.13;13.90;;;;;;;;;;6212172;23;20468;-72
2023/09/30 02:37:46;;;;;;;18.25;13.88;;;;;;;;;;6212173;23;20016;-73
2023/09/30 02:40:14;;;;;;;18.80;13.85;;;;;;;;;;6210472;23;20013;-73
2023/09/30 02:42:41;;;;;;;17.75;13.35;;;;;;;;;;6210829;23;20017;-71
2023/09/30 02:45:10;;;;;;;19.77;13.98;;;;;;;;;;6212394;23;20016;-74
2023/09/30 02:47:37;;;;;;;16.60;13.85;;;;;;;;;;6210533;23;20024;-73
2023/09/30 02:50:04;;;;;;;23.60;19.08;;;;;;;;;;6210457;23;20408;-72
2023/09/30 02:52:31;;;;;;;17.15;15.38;;;;;;;;;;6211916;23;20063;-71
2023/09/30 02:55:01;;;;;;;26.13;14.15;;;;;;;;;;6210801;23;20023;-72
2023/09/30 02:57:31;;;;;;;21.65;14.77;;;;;;;;;;6211771;23;20040;-71
2023/09/30 02:59:59;;;;;;;24.40;14.50;;;;;;;;;;6210544;23;20615;-72
2023/09/30 03:02:26;;;;;;;19.27;15.18;;;;;;;;;;6210563;23;20012;-74
2023/09/30 03:04:52;;;;;;;19.55;14.43;;;;;;;;;;6212739;23;20023;-72
2023/09/30 03:07:19;;;;;;;21.20;14.52;;;;;;;;;;6211951;23;20107;-72
2023/09/30 03:09:46;;;;;;;18.48;12.73;;;;;;;;;;6212036;23;20529;-73
2023/09/30 03:12:13;;;;;;;21.25;14.02;;;;;;;;;;6210072;23;20362;-73
2023/09/30 03:14:40;;;;;;;14.20;12.68;;;;;;;;;;6212774;23;20015;-73
2023/09/30 03:17:11;;;;;;;17.15;13.75;;;;;;;;;;6212094;23;20460;-74
2023/09/30 03:19:38;;;;;;;21.88;14.35;;;;;;;;;;6210972;23;20095;-74
2023/09/30 03:22:05;;;;;;;23.42;13.95;;;;;;;;;;6211016;23;20054;-71
2023/09/30 03:24:31;;;;;;;18.42;12.60;;;;;;;;;;6210673;23;20036;-72
2023/09/30 03:26:58;;;;;;;14.32;12.65;;;;;;;;;;6212916;23;20024;-72
2023/09/30 03:29:24;;;;;;;18.98;12.68;;;;;;;;;;6219219;23;20104;-73
2023/09/30 03:31:50;;;;;;;14.23;12.77;;;;;;;;;;6221700;23;20035;-73
2023/09/30 03:34:16;;;;;;;15.57;12.35;;;;;;;;;;6219163;23;20021;-72
2023/09/30 03:36:44;;;;;;;14.35;12.88;;;;;;;;;;6210901;23;20012;-74
2023/09/30 03:39:14;;;;;;;20.17;13.93;;;;;;;;;;6186030;23;20484;-73
2023/09/30 03:42:11;;;;;;;15.32;13.10;;;;;;;;;;6212189;23;20530;-74
2023/09/30 03:45:06;;;;;;;20.40;13.32;;;;;;;;;;6188811;23;20015;-73
2023/09/30 03:47:37;;;;;;;18.42;13.75;;;;;;;;;;6161968;23;20499;-72
2023/09/30 03:50:03;;;;;;;21.58;14.98;;;;;;;;;;6136730;23;20009;-72
2023/09/30 03:52:32;;;;;;;17.25;13.32;;;;;;;;;;6160883;23;20043;-72
2023/09/30 03:55:05;;;;;;;18.85;13.93;;;;;;;;;;6136389;23;20339;-73
2023/09/30 03:57:34;;;;;;;18.33;14.07;;;;;;;;;;6210401;23;20096;-73
2023/09/30 04:00:00;;;;;;;17.83;13.75;;;;;;;;;;6136321;23;20500;-72
2023/09/30 04:02:27;;;;;;;18.98;13.70;;;;;;;;;;6211081;23;20357;-72
2023/09/30 04:04:55;;;;;;;18.00;13.55;;;;;;;;;;6212409;23;20016;-73
2023/09/30 04:07:27;;;;;;;17.02;12.48;;;;;;;;;;6137584;23;20029;-73
2023/09/30 04:09:56;;;;;;;11.70;10.02;;;;;;;;;;6139841;23;20013;-73
2023/09/30 04:12:28;;;;;;;13.85;12.38;;;;;;;;;;6213625;23;20020;-73
2023/09/30 04:14:54;;;;;;;18.00;12.43;;;;;;;;;;6213708;23;20008;-73
2023/09/30 04:17:22;;;;;;;18.92;13.63;;;;;;;;;;6211371;23;20013;-73
2023/09/30 04:19:51;;;;;;;19.20;12.35;;;;;;;;;;6211964;23;20021;-73
2023/09/30 04:22:18;;;;;;;18.30;12.07;;;;;;;;;;6137478;23;20017;-73
2023/09/30 04:24:45;;;;;;;16.00;12.27;;;;;;;;;;6162045;23;20016;-73
2023/09/30 04:27:11;;;;;;;18.55;13.75;;;;;;;;;;6211755;23;20143;-73
2023/09/30 04:29:39;;;;;;;14.40;11.30;;;;;;;;;;6211746;23;20155;-72
2023/09/30 04:32:06;;;;;;;12.98;11.65;;;;;;;;;;6213519;23;20019;-73
2023/09/30 04:34:32;;;;;;;13.38;12.07;;;;;;;;;;6213187;23;20008;-73
2023/09/30 04:36:59;;;;;;;15.63;12.70;;;;;;;;;;6211666;23;20016;-74
2023/09/30 04:39:25;;;;;;;21.60;12.38;;;;;;;;;;6213274;23;20029;-73
2023/09/30 04:41:51;;;;;;;15.75;13.30;;;;;;;;;;6211951;23;20012;-73
2023/09/30 04:44:17;;;;;;;15.35;12.30;;;;;;;;;;6211427;23;20113;-73
2023/09/30 04:46:45;;;;;;;18.17;12.30;;;;;;;;;;6186498;23;20027;-73
2023/09/30 04:49:14;;;;;;;20.10;12.70;;;;;;;;;;6213304;23;20012;-73
2023/09/30 04:51:40;;;;;;;14.52;12.23;;;;;;;;;;6213311;23;20013;-73
2023/09/30 04:54:10;;;;;;;19.88;12.25;;;;;;;;;;6210666;23;20365;-73
2023/09/30 04:57:02;;;;;;;13.87;11.73;;;;;;;;;;6212951;23;20083;-75
2023/09/30 04:59:29;;;;;;;14.80;11.70;;;;;;;;;;6213005;23;20013;-73
2023/09/30 05:01:56;;;;;;;24.42;12.32;;;;;;;;;;6211464;23;20527;-74
2023/09/30 05:04:25;;;;;;;16.90;12.40;;;;;;;;;;6211388;23;20013;-74
2023/09/30 05:06:51;;;;;;;16.00;11.95;;;;;;;;;;6187462;23;20056;-74
2023/09/30 05:09:17;;;;;;;16.08;11.40;;;;;;;;;;6212974;23;20012;-74
2023/09/30 05:11:44;;;;;;;14.30;11.70;;;;;;;;;;6211261;23;20071;-75
2023/09/30 05:14:10;;;;;;;21.58;12.60;;;;;;;;;;6186982;23;20063;-74
2023/09/30 05:16:38;;;;;;;13.80;12.48;;;;;;;;;;6208722;23;20017;-73
2023/09/30 05:19:09;;;;;;;19.35;13.45;;;;;;;;;;6212231;23;20059;-75
2023/09/30 05:21:36;;;;;;;18.23;13.02;;;;;;;;;;6211959;23;20343;-74
2023/09/30 05:24:05;;;;;;;15.05;12.10;;;;;;;;;;6186268;23;20091;-74
2023/09/30 05:26:32;;;;;;;19.55;13.85;;;;;;;;;;6136757;23;20100;-73
2023/09/30 05:28:59;;;;;;;20.45;12.10;;;;;;;;;;6211168;23;20020;-73
2023/09/30 05:31:25;;;;;;;15.40;12.85;;;;;;;;;;6185649;23;20020;-74
2023/09/30 05:33:51;;;;;;;16.33;13.30;;;;;;;;;;6210368;23;20019;-73
2023/09/30 05:36:39;;;;;;;20.65;12.20;;;;;;;;;;6160215;23;20021;-74
2023/09/30 05:39:05;;;;;;;17.73;12.48;;;;;;;;;;6160901;23;20036;-74
2023/09/30 05:41:31;;;;;;;18.90;12.82;;;;;;;;;;6160750;23;20020;-73
2023/09/30 05:43:59;;;;;;;19.27;11.75;;;;;;;;;;6136145;23;20020;-73
2023/09/30 05:46:27;;;;;;;23.63;13.45;;;;;;;;;;6136126;23;20184;-74
2023/09/30 05:48:53;;;;;;;15.60;11.43;;;;;;;;;;6161078;23;20012;-74
2023/09/30 05:51:19;;;;;;;18.15;12.27;;;;;;;;;;6210882;23;20039;-73
2023/09/30 05:53:47;;;;;;;14.52;12.07;;;;;;;;;;6210713;23;20469;-73
2023/09/30 05:56:15;;;;;;;17.77;12.15;;;;;;;;;;6162214;23;20079;-74
2023/09/30 05:58:42;;;;;;;14.60;11.90;;;;;;;;;;6136316;23;20446;-74
2023/09/30 06:01:10;;;;;;;16.05;12.27;;;;;;;;;;6161045;23;20016;-73
2023/09/30 06:03:39;;;;;;;16.20;12.75;;;;;;;;;;6136684;23;20349;-74
2023/09/30 06:06:15;;;;;;;17.30;12.68;;;;;;;;;;6210759;23;20032;-75
2023/09/30 06:08:43;;;;;;;15.75;11.88;;;;;;;;;;6161005;23;20051;-73
2023/09/30 06:11:16;;;;;;;13.18;11.40;;;;;;;;;;6184793;23;20008;-73
2023/09/30 06:13:43;;;;;;;15.38;11.20;;;;;;;;;;6184839;23;20008;-73
2023/09/30 06:16:11;;;;;;;18.70;11.93;;;;;;;;;;6209341;23;20507;-74
2023/09/30 06:19:02;;;;;;;12.73;11.43;;;;;;;;;;6208947;23;20012;-74
2023/09/30 06:21:34;;;;;;;16.25;11.10;;;;;;;;;;6184182;23;20016;-74
2023/09/30 06:24:02;;;;;;;18.65;11.45;;;;;;;;;;6135797;23;20044;-74
2023/09/30 06:26:37;;;;;;;17.80;11.85;;;;;;;;;;6138936;23;20021;-74
2023/09/30 06:29:03;;;;;;;15.00;11.55;;;;;;;;;;6159962;23;20047;-74
2023/09/30 06:31:29;;;;;;;19.35;10.77;;;;;;;;;;6130505;23;20366;-74
2023/09/30 06:33:58;;;;;;;17.67;11.30;;;;;;;;;;6106331;23;20009;-75
2023/09/30 06:36:24;;;;;;;13.52;11.43;;;;;;;;;;6130980;23;20019;-75
2023/09/30 06:38:51;;;;;;;21.83;11.13;;;;;;;;;;6154198;23;20044;-75
2023/09/30 06:41:20;;;;;;;16.95;10.50;;;;;;;;;;6130812;23;20458;-75
2023/09/30 06:43:46;;;;;;;19.80;11.40;;;;;;;;;;6081856;23;20013;-74
2023/09/30 06:46:16;;;;;;;12.90;10.73;;;;;;;;;;6084721;23;20021;-74
2023/09/30 06:48:53;;;;;;;13.55;10.27;;;;;;;;;;6162349;23;20355;-74
2023/09/30 06:51:19;;;;;;;14.15;10.05;;;;;;;;;;6190447;23;20080;-74
2023/09/30 06:53:46;;;;;;;11.13;9.95;;;;;;;;;;6136069;23;20055;-75
2023/09/30 06:56:37;;;;;;;18.10;10.57;;;;;;;;;;6116300;23;20117;-74
2023/09/30 06:59:03;;;;;;;16.77;10.60;;;;;;;;;;6106285;23;20032;-74
2023/09/30 07:01:29;;;;;;;20.20;10.90;;;;;;;;;;6154804;23;20044;-75
2023/09/30 07:03:57;;;;;;;18.75;10.23;;;;;;;;;;6106043;23;20398;-75
2023/09/30 07:06:32;;;;;;;13.65;9.02;;;;;;;;;;6130337;23;20025;-75
2023/09/30 07:09:27;;;;;;;23.70;10.32;;;;;;;;;;6130408;23;20009;-74
2023/09/30 07:11:53;;;;;;;21.73;10.85;;;;;;;;;;6129702;23;20020;-73
2023/09/30 07:14:19;;;;;;;18.20;11.32;;;;;;;;;;6105371;23;20366;-75
2023/09/30 07:16:46;;;;;;;17.13;10.80;;;;;;;;;;6105372;23;20021;-74
2023/09/30 07:19:12;;;;;;;20.02;10.63;;;;;;;;;;6082018;23;20024;-74
2023/09/30 07:21:38;;;;;;;15.52;10.63;;;;;;;;;;6154682;23;20024;-74
2023/09/30 07:24:05;;;;;;;22.10;11.10;;;;;;;;;;6181325;23;20005;-75
2023/09/30 07:26:37;;;;;;;13.25;9.98;;;;;;;;;;6105604;23;20025;-74
2023/09/30 07:29:04;;;;;;;17.40;11.75;;;;;;;;;;6130524;23;20028;-75
2023/09/30 07:31:34;;;;;;;23.92;13.65;;;;;;;;;;6106053;23;20021;-75
2023/09/30 07:34:01;;;;;;;26.77;13.25;;;;;;;;;;6082379;23;20017;-74
2023/09/30 07:36:26;;;;;;;19.80;13.05;;;;;;;;;;6129403;23;20045;-75
2023/09/30 07:38:54;;;;;;;22.55;12.55;;;;;;;;;;6083572;23;20023;-76
2023/09/30 07:41:25;;;;;;;18.52;13.40;;;;;;;;;;6108248;23;20009;-76
2023/09/30 07:43:52;;;;;;;23.25;12.25;;;;;;;;;;6106846;23;20175;-75
2023/09/30 07:46:19;;;;;;;24.13;12.48;;;;;;;;;;6106461;23;20033;-75
2023/09/30 07:49:14;;;;;;;17.40;12.18;;;;;;;;;;6156053;23;20012;-75
2023/09/30 07:51:40;;;;;;;13.77;10.43;;;;;;;;;;6131475;23;20017;-75
2023/09/30 07:54:06;;;;;;;16.92;10.43;;;;;;;;;;6103847;23;20027;-74
2023/09/30 07:56:32;;;;;;;23.60;11.43;;;;;;;;;;6107277;23;20017;-75
2023/09/30 07:59:02;;;;;;;22.10;10.85;;;;;;;;;;6108697;23;20009;-75
2023/09/30 08:01:35;;;;;;;15.95;10.20;;;;;;;;;;6156371;23;20025;-77
2023/09/30 08:04:21;;;;;;;12.50;10.18;;;;;;;;;;6107763;23;20012;-76
2023/09/30 08:06:47;;;;;;;18.30;9.75;;;;;;;;;;6131577;23;20028;-76
2023/09/30 08:09:13;;;;;;;21.67;9.40;;;;;;;;;;6131902;23;20462;-75
2023/09/30 08:11:41;;;;;;;18.20;9.82;;;;;;;;;;6156433;23;20100;-75
2023/09/30 08:14:09;;;;;;;14.43;9.55;;;;;;;;;;6156394;23;20044;-74
2023/09/30 08:16:36;;;;;;;19.50;9.95;;;;;;;;;;6180991;23;20120;-75
2023/09/30 08:19:03;;;;;;;13.70;8.82;;;;;;;;;;6182078;23;20524;-75
2023/09/30 08:21:30;;;;;;;14.05;8.70;;;;;;;;;;6181042;23;20017;-77
2023/09/30 08:23:57;;;;;;;14.30;8.52;;;;;;;;;;6131592;23;20013;-76
2023/09/30 08:26:23;;;;;;;12.10;8.27;;;;;;;;;;6184000;23;20023;-76
2023/09/30 08:28:49;;;;;;;12.98;8.40;;;;;;;;;;6156756;23;20009;-76
2023/09/30 08:31:15;;;;;;;17.50;8.80;;;;;;;;;;6180585;23;20111;-76
2023/09/30 08:33:43;;;;;;;10.52;8.63;;;;;;;;;;6211121;23;20020;-76
2023/09/30 08:36:10;;;;;;;13.57;8.57;;;;;;;;;;6186599;23;20024;-75
2023/09/30 08:38:40;;;;;;;10.23;7.50;;;;;;;;;;6211188;23;20126;-77
2023/09/30 08:41:07;;;;;;;14.65;8.40;;;;;;;;;;6185960;23;20102;-76
2023/09/30 08:43:36;;;;;;;8.10;6.97;;;;;;;;;;6211485;23;20082;-76
2023/09/30 08:46:02;;;;;;;13.75;7.57;;;;;;;;;;6186620;23;20461;-77
2023/09/30 08:48:28;;;;;;;11.02;6.85;;;;;;;;;;6208662;23;20092;-76
2023/09/30 08:50:55;;;;;;;8.90;6.65;;;;;;;;;;6211157;23;20020;-78
2023/09/30 08:53:21;;;;;;;11.30;6.50;;;;;;;;;;6161319;23;20394;-77
2023/09/30 08:55:47;;;;;;;15.98;7.43;;;;;;;;;;6161573;23;20650;-76
2023/09/30 08:58:13;;;;;;;7.70;6.95;;;;;;;;;;6213146;23;20016;-76
2023/09/30 09:00:39;;;;;;;11.90;6.22;;;;;;;;;;6210898;23;20188;-77
2023/09/30 09:03:06;;;;;;;9.90;6.68;;;;;;;;;;6211077;23;20095;-76
2023/09/30 09:05:32;;;;;;;11.15;6.88;;;;;;;;;;6210781;23;20020;-77
2023/09/30 09:07:58;;;;;;;7.75;7.03;;;;;;;;;;6212788;23;20343;-77
2023/09/30 09:10:25;;;;;;;10.75;7.07;;;;;;;;;;6211435;23;20043;-77
2023/09/30 09:12:57;;;;;;;9.75;7.15;;;;;;;;;;6210735;23;20066;-76
2023/09/30 09:15:24;;;;;;;6.85;6.25;;;;;;;;;;6186294;23;20503;-76
2023/09/30 09:17:51;;;;;;;13.18;6.85;;;;;;;;;;6211255;23;20326;-76
2023/09/30 09:20:21;;;;;;;8.50;6.28;;;;;;;;;;6210712;23;20079;-76
2023/09/30 09:22:53;;;;;;;15.73;7.13;;;;;;;;;;6186286;23;20047;-76
2023/09/30 09:25:19;;;;;;;7.25;6.40;;;;;;;;;;6210727;23;20449;-76
2023/09/30 09:27:45;;;;;;;8.50;6.70;;;;;;;;;;6211388;23;20012;-76
2023/09/30 09:30:18;;;;;;;8.02;6.82;;;;;;;;;;6212602;23;20024;-76
2023/09/30 09:32:57;;;;;;;16.20;7.13;;;;;;;;;;6210821;23;20012;-75
2023/09/30 09:35:25;;;;;;;11.15;6.80;;;;;;;;;;6185417;23;20021;-76
2023/09/30 09:38:15;;;;;;;9.57;6.32;;;;;;;;;;6212421;23;20020;-77
2023/09/30 09:40:45;;;;;;;8.02;6.28;;;;;;;;;;6186644;23;20012;-77
2023/09/30 09:43:11;;;;;;;10.32;6.60;;;;;;;;;;6185848;23;20042;-78
2023/09/30 09:45:37;;;;;;;14.77;5.97;;;;;;;;;;6137039;23;20084;-78
2023/09/30 09:48:04;;;;;;;7.43;5.82;;;;;;;;;;6212797;23;20099;-78
2023/09/30 09:50:38;;;;;;;9.88;6.25;;;;;;;;;;6188641;23;20016;-78
2023/09/30 09:53:06;;;;;;;7.53;5.93;;;;;;;;;;6187114;23;20031;-78
2023/09/30 09:55:32;;;;;;;14.68;6.60;;;;;;;;;;6137810;23;20016;-78
2023/09/30 09:57:58;;;;;;;18.52;5.90;;;;;;;;;;6145895;23;20389;-79
2023/09/30 10:00:25;;;;;;;7.25;6.50;;;;;;;;;;6223517;23;20013;-79
2023/09/30 10:02:51;;;;;;;6.40;5.90;;;;;;;;;;6165736;23;20016;-78
2023/09/30 10:05:18;;;;;;;8.48;6.20;;;;;;;;;;6137543;23;20020;-78
2023/09/30 10:07:45;;;;;;;13.23;6.43;;;;;;;;;;6159006;23;20016;-79
2023/09/30 10:10:16;;;;;;;9.98;5.95;;;;;;;;;;6161449;23;20039;-78
2023/09/30 10:12:46;;;;;;;12.02;6.78;;;;;;;;;;6161557;23;20016;-79
2023/09/30 10:15:25;;;;;;;6.72;5.32;;;;;;;;;;6210887;23;20024;-78
2023/09/30 10:18:03;;;;;;;8.32;6.18;;;;;;;;;;6185214;23;20082;-78
2023/09/30 10:20:31;;;;;;;9.23;6.37;;;;;;;;;;6161401;23;20424;-78
2023/09/30 10:23:16;;;;;;;8.10;6.38;;;;;;;;;;6185245;23;20331;-78
2023/09/30 10:25:47;;;;;;;8.25;5.30;;;;;;;;;;6185372;23;20036;-79
2023/09/30 10:28:32;;;;;;;6.15;5.55;;;;;;;;;;6162285;23;20043;-78
2023/09/30 10:31:08;;;;;;;6.57;5.97;;;;;;;;;;6186247;23;20020;-78
2023/09/30 10:34:02;;;;;;;7.28;4.85;;;;;;;;;;6190996;23;20028;-79
2023/09/30 10:36:51;;;;;;;12.25;6.72;;;;;;;;;;6185219;23;20028;-79
2023/09/30 10:39:37;;;;;;;6.72;6.05;;;;;;;;;;6158495;23;20013;-78
2023/09/30 10:42:24;;;;;;;10.80;6.78;;;;;;;;;;6160317;23;20468;-78
2023/09/30 10:44:50;;;;;;;10.60;6.00;;;;;;;;;;6185999;23;20104;-77
2023/09/30 10:47:20;;;;;;;7.45;5.18;;;;;;;;;;6136015;23;20016;-78
2023/09/30 10:49:47;;;;;;;10.80;6.57;;;;;;;;;;6185465;23;20016;-78
2023/09/30 10:52:13;;;;;;;6.75;5.97;;;;;;;;;;6135819;23;20449;-79
2023/09/30 10:54:42;;;;;;;11.18;7.18;;;;;;;;;;6160164;23;20042;-79
2023/09/30 10:57:09;;;;;;;9.90;5.73;;;;;;;;;;6184976;23;20021;-78
2023/09/30 10:59:36;;;;;;;6.30;5.72;;;;;;;;;;6184900;23;20331;-79
2023/09/30 11:02:03;;;;;;;8.98;6.90;;;;;;;;;;6210211;23;20032;-78
2023/09/30 11:04:46;;;;;;;9.10;7.30;;;;;;;;;;6162047;23;20048;-78
2023/09/30 11:07:19;;;;;;;9.80;6.57;;;;;;;;;;6185148;23;20013;-78
2023/09/30 11:09:45;;;;;;;13.60;6.28;;;;;;;;;;6210130;23;20015;-77
2023/09/30 11:12:15;;;;;;;7.13;6.50;;;;;;;;;;6209752;23;20017;-77
2023/09/30 11:14:41;;;;;;;10.77;6.55;;;;;;;;;;6184744;23;20115;-76
2023/09/30 11:17:08;;;;;;;13.68;6.80;;;;;;;;;;6160041;23;20032;-77
2023/09/30 11:19:45;;;;;;;9.50;6.85;;;;;;;;;;6184777;23;20098;-77
2023/09/30 11:22:11;;;;;;;7.35;6.70;;;;;;;;;;6210054;23;20428;-77
2023/09/30 11:24:41;;;;;;;11.82;6.32;;;;;;;;;;6161617;23;20024;-77
2023/09/30 11:27:09;;;;;;;10.05;6.28;;;;;;;;;;6181820;23;20043;-77
2023/09/30 11:29:36;;;;;;;10.55;6.63;;;;;;;;;;6135369;23;20583;-76
2023/09/30 11:32:02;;;;;;;7.22;6.60;;;;;;;;;;6160527;23;20473;-77
2023/09/30 11:34:36;;;;;;;6.97;5.78;;;;;;;;;;6136336;23;20023;-77
2023/09/30 11:37:02;;;;;;;10.18;7.55;;;;;;;;;;6160147;23;20092;-77
2023/09/30 11:39:28;;;;;;;13.13;7.45;;;;;;;;;;6184587;23;20013;-77
2023/09/30 11:41:57;;;;;;;10.38;6.78;;;;;;;;;;6160246;23;20348;-77
2023/09/30 11:44:24;;;;;;;16.90;7.28;;;;;;;;;;6158604;23;20017;-77
2023/09/30 11:46:50;;;;;;;8.93;6.57;;;;;;;;;;6211181;23;20047;-77
2023/09/30 11:49:29;;;;;;;11.70;6.88;;;;;;;;;;6211313;23;20009;-77
2023/09/30 11:51:55;;;;;;;11.18;7.18;;;;;;;;;;6209895;23;20373;-76
2023/09/30 11:54:22;;;;;;;6.78;5.70;;;;;;;;;;6184649;23;20008;-76
2023/09/30 11:56:50;;;;;;;8.60;6.78;;;;;;;;;;6209389;23;20059;-76
2023/09/30 11:59:19;;;;;;;17.40;7.07;;;;;;;;;;6185050;23;20019;-76
2023/09/30 12:01:48;;;;;;;7.55;6.10;;;;;;;;;;6209844;23;20020;-78
2023/09/30 12:04:17;;;;;;;7.18;6.40;;;;;;;;;;6209682;23;20009;-76
2023/09/30 12:06:43;;;;;;;7.95;7.15;;;;;;;;;;6209307;23;20107;-76
2023/09/30 12:09:14;;;;;;;11.98;7.20;;;;;;;;;;6209378;23;20040;-77
2023/09/30 12:11:45;;;;;;;10.85;7.30;;;;;;;;;;6209323;23;20112;-77
2023/09/30 12:14:12;;;;;;;8.63;6.13;;;;;;;;;;6183842;23;20012;-77
2023/09/30 12:16:39;;;;;;;7.22;6.53;;;;;;;;;;6184706;23;20048;-76
2023/09/30 12:19:08;;;;;;;7.88;7.18;;;;;;;;;;6211410;23;20128;-77
2023/09/30 12:21:34;;;;;;;11.13;7.28;;;;;;;;;;6209562;23;20024;-76
2023/09/30 12:24:01;;;;;;;10.18;6.93;;;;;;;;;;6211047;23;20009;-76
2023/09/30 12:26:27;;;;;;;8.13;7.05;;;;;;;;;;6213053;23;20493;-76
2023/09/30 12:28:54;;;;;;;16.05;7.00;;;;;;;;;;6213186;23;20008;-75
2023/09/30 12:31:21;;;;;;;7.50;6.90;;;;;;;;;;6213058;23;20031;-75
2023/09/30 12:33:50;;;;;;;18.13;7.90;;;;;;;;;;6211381;23;20067;-76
2023/09/30 12:36:17;;;;;;;7.38;6.68;;;;;;;;;;6214216;23;20052;-77
2023/09/30 12:38:43;;;;;;;8.85;7.30;;;;;;;;;;6211642;23;20015;-75
2023/09/30 12:41:09;;;;;;;11.57;6.10;;;;;;;;;;6213303;23;20031;-76
2023/09/30 12:43:35;;;;;;;11.10;6.55;;;;;;;;;;6210860;23;20446;-75
2023/09/30 12:46:01;;;;;;;15.57;7.45;;;;;;;;;;6211308;23;20012;-77
2023/09/30 12:48:27;;;;;;;12.23;7.50;;;;;;;;;;6211597;23;20508;-76
2023/09/30 12:50:53;;;;;;;8.10;6.78;;;;;;;;;;6212634;23;20040;-76
2023/09/30 12:53:19;;;;;;;13.38;7.38;;;;;;;;;;6216811;23;20027;-76
2023/09/30 12:55:45;;;;;;;10.18;7.38;;;;;;;;;;6215743;23;20008;-76
2023/09/30 12:58:11;;;;;;;11.15;7.53;;;;;;;;;;6214798;23;20145;-75
2023/09/30 13:00:37;;;;;;;13.82;8.02;;;;;;;;;;6195017;23;20009;-75
2023/09/30 13:03:04;;;;;;;15.55;8.18;;;;;;;;;;6198793;23;20019;-76
2023/09/30 13:05:30;;;;;;;13.18;8.32;;;;;;;;;;6219290;23;20013;-76
2023/09/30 13:07:56;;;;;;;8.77;7.20;;;;;;;;;;6211641;23;20009;-75
2023/09/30 13:10:22;;;;;;;11.65;8.05;;;;;;;;;;6211905;23;20040;-75
2023/09/30 13:12:49;;;;;;;7.82;6.80;;;;;;;;;;6212028;23;20096;-77
2023/09/30 13:15:16;;;;;;;12.18;7.50;;;;;;;;;;6212076;23;20108;-76
2023/09/30 13:17:42;;;;;;;8.65;7.68;;;;;;;;;;6211627;23;20024;-76
2023/09/30 13:20:09;;;;;;;11.43;7.55;;;;;;;;;;6211649;23;20013;-76
2023/09/30 13:22:37;;;;;;;10.27;7.60;;;;;;;;;;6211108;23;20401;-76
2023/09/30 13:25:05;;;;;;;8.35;6.22;;;;;;;;;;6211585;23;20357;-76
2023/09/30 13:27:32;;;;;;;8.55;7.70;;;;;;;;;;6211137;23;20111;-76
2023/09/30 13:29:58;;;;;;;14.80;8.38;;;;;;;;;;6212242;23;20035;-76
2023/09/30 13:32:28;;;;;;;13.48;7.30;;;;;;;;;;6212944;23;20013;-76
2023/09/30 13:34:54;;;;;;;9.90;8.38;;;;;;;;;;6210352;23;20019;-75
2023/09/30 13:37:20;;;;;;;16.13;8.48;;;;;;;;;;6213341;23;20055;-75
2023/09/30 13:39:46;;;;;;;21.00;8.90;;;;;;;;;;6186413;23;20017;-76
2023/09/30 13:42:13;;;;;;;15.93;8.95;;;;;;;;;;6212757;23;20023;-76
2023/09/30 13:44:39;;;;;;;16.65;9.43;;;;;;;;;;6185980;23;20518;-75
2023/09/30 13:47:05;;;;;;;12.45;9.25;;;;;;;;;;6212995;23;20416;-75
2023/09/30 13:49:33;;;;;;;14.57;9.52;;;;;;;;;;6210807;23;20047;-75
2023/09/30 13:51:59;;;;;;;16.00;8.10;;;;;;;;;;6211119;23;20047;-75
2023/09/30 13:54:25;;;;;;;14.05;8.52;;;;;;;;;;6212718;23;20013;-76
2023/09/30 13:56:51;;;;;;;18.70;10.40;;;;;;;;;;6210558;23;20020;-75
2023/09/30 13:59:17;;;;;;;14.98;9.30;;;;;;;;;;6212483;23;20089;-75
2023/09/30 14:01:43;;;;;;;18.05;9.32;;;;;;;;;;6210920;23;20012;-75
2023/09/30 14:04:12;;;;;;;15.80;8.93;;;;;;;;;;6210816;23;20019;-75
2023/09/30 14:06:38;;;;;;;16.83;9.68;;;;;;;;;;6212208;23;20016;-75
2023/09/30 14:09:04;;;;;;;10.00;9.00;;;;;;;;;;6212280;23;20019;-76
2023/09/30 14:11:32;;;;;;;12.43;9.00;;;;;;;;;;6211008;23;20012;-76
2023/09/30 14:13:57;;;;;;;12.25;9.57;;;;;;;;;;6161128;23;20023;-76
2023/09/30 14:16:24;;;;;;;19.23;9.50;;;;;;;;;;6212228;23;20028;-76
2023/09/30 14:18:50;;;;;;;19.13;9.80;;;;;;;;;;6210323;23;20016;-76
2023/09/30 14:21:18;;;;;;;10.07;8.88;;;;;;;;;;6211080;23;20012;-75
2023/09/30 14:23:44;;;;;;;10.98;9.88;;;;;;;;;;6210661;23;20016;-75
2023/09/30 14:26:10;;;;;;;15.05;9.93;;;;;;;;;;6212252;23;20069;-76
2023/09/30 14:28:37;;;;;;;19.02;10.20;;;;;;;;;;6212379;23;20013;-75
2023/09/30 14:31:04;;;;;;;18.33;9.60;;;;;;;;;;6160785;23;20027;-76
2023/09/30 14:33:30;;;;;;;18.10;8.55;;;;;;;;;;6212192;23;20426;-75